sensor_id;sensor_type;location;lat;lon;timestamp;pressure;altitude;pressure_sealevel;temperature;humidity
62103;BME280;48077;48.104;11.702;2022-12-08T00:01:23;95014.28;;;-0.62;100.00
62103;BME280;48077;48.104;11.702;2022-12-08T00:03:47;95007.22;;;-0.61;100.00
62103;BME280;48077;48.104;11.702;2022-12-08T00:06:34;95004.59;;;-0.61;100.00
62103;BME280;48077;48.104;11.702;2022-12-08T00:09:23;95005.41;;;-0.61;100.00
62103;BME280;48077;48.104;11.702;2022-12-08T00:14:16;94992.25;;;-0.75;100.00
62103;BME280;48077;48.104;11.702;2022-12-08T00:16:39;95008.22;;;-0.62;100.00
62103;BME280;48077;48.104;11.702;2022-12-08T00:19:03;94953.28;;;-0.93;100.00
62103;BME280;48077;48.104;11.702;2022-12-08T00:21:27;95006.25;;;-0.60;100.00
62103;BME280;48077;48.104;11.702;2022-12-08T00:23:53;94989.47;;;-0.74;100.00
62103;BME280;48077;48.104;11.702;2022-12-08T00:26:17;95000.38;;;-0.62;100.00
62103;BME280;48077;48.104;11.702;2022-12-08T00:28:40;95005.78;;;-0.64;100.00
62103;BME280;48077;48.104;11.702;2022-12-08T00:31:08;94996.09;;;-0.63;100.00
62103;BME280;48077;48.104;11.702;2022-12-08T00:33:31;94993.47;;;-0.63;100.00
62103;BME280;48077;48.104;11.702;2022-12-08T00:35:55;94995.94;;;-0.62;100.00
62103;BME280;48077;48.104;11.702;2022-12-08T00:38:18;94991.66;;;-0.63;100.00
62103;BME280;48077;48.104;11.702;2022-12-08T00:40:45;94996.25;;;-0.65;100.00
62103;BME280;48077;48.104;11.702;2022-12-08T00:43:08;94996.25;;;-0.65;100.00
62103;BME280;48077;48.104;11.702;2022-12-08T00:45:32;94985.78;;;-0.65;100.00
62103;BME280;48077;48.104;11.702;2022-12-08T00:47:55;94988.78;;;-0.68;100.00
62103;BME280;48077;48.104;11.702;2022-12-08T00:50:18;94984.53;;;-0.69;100.00
62103;BME280;48077;48.104;11.702;2022-12-08T00:52:42;94989.78;;;-0.69;100.00
62103;BME280;48077;48.104;11.702;2022-12-08T00:55:05;94987.50;;;-0.72;100.00
62103;BME280;48077;48.104;11.702;2022-12-08T00:57:29;94977.53;;;-0.76;100.00
62103;BME280;48077;48.104;11.702;2022-12-08T00:59:53;94975.41;;;-0.73;100.00
62103;BME280;48077;48.104;11.702;2022-12-08T01:02:16;94979.81;;;-0.73;100.00
62103;BME280;48077;48.104;11.702;2022-12-08T01:04:39;94995.34;;;-0.72;100.00
62103;BME280;48077;48.104;11.702;2022-12-08T01:07:03;94988.31;;;-0.71;100.00
62103;BME280;48077;48.104;11.702;2022-12-08T01:09:27;94980.63;;;-0.73;100.00
62103;BME280;48077;48.104;11.702;2022-12-08T01:11:50;94967.59;;;-0.81;100.00
62103;BME280;48077;48.104;11.702;2022-12-08T01:14:14;94981.97;;;-0.77;100.00
62103;BME280;48077;48.104;11.702;2022-12-08T01:16:37;94977.25;;;-0.82;100.00
62103;BME280;48077;48.104;11.702;2022-12-08T01:19:03;94984.22;;;-0.74;100.00
62103;BME280;48077;48.104;11.702;2022-12-08T01:21:27;94986.38;;;-0.77;100.00
62103;BME280;48077;48.104;11.702;2022-12-08T01:23:50;94981.34;;;-0.79;100.00
62103;BME280;48077;48.104;11.702;2022-12-08T01:26:15;94980.63;;;-0.73;100.00
62103;BME280;48077;48.104;11.702;2022-12-08T01:28:40;94978.66;;;-0.71;100.00
62103;BME280;48077;48.104;11.702;2022-12-08T01:31:03;94979.81;;;-0.73;100.00
62103;BME280;48077;48.104;11.702;2022-12-08T01:33:27;94976.38;;;-0.74;100.00
62103;BME280;48077;48.104;11.702;2022-12-08T01:35:51;94972.16;;;-0.75;100.00
62103;BME280;48077;48.104;11.702;2022-12-08T01:38:15;94973.59;;;-0.72;100.00
62103;BME280;48077;48.104;11.702;2022-12-08T01:40:38;94969.00;;;-0.70;100.00
62103;BME280;48077;48.104;11.702;2022-12-08T01:43:02;94969.63;;;-0.68;100.00
62103;BME280;48077;48.104;11.702;2022-12-08T01:45:28;94975.84;;;-0.69;100.00
62103;BME280;48077;48.104;11.702;2022-12-08T01:47:55;94955.91;;;-0.70;100.00
62103;BME280;48077;48.104;11.702;2022-12-08T01:50:21;94948.44;;;-0.82;100.00
62103;BME280;48077;48.104;11.702;2022-12-08T01:52:54;94957.94;;;-0.80;100.00
62103;BME280;48077;48.104;11.702;2022-12-08T01:58:25;94956.66;;;-0.85;100.00
62103;BME280;48077;48.104;11.702;2022-12-08T02:00:51;94952.75;;;-0.89;100.00
62103;BME280;48077;48.104;11.702;2022-12-08T02:03:19;94949.34;;;-0.89;100.00
62103;BME280;48077;48.104;11.702;2022-12-08T02:05:45;94946.06;;;-0.91;100.00
62103;BME280;48077;48.104;11.702;2022-12-08T02:08:10;94936.94;;;-0.95;100.00
62103;BME280;48077;48.104;11.702;2022-12-08T02:10:37;94941.66;;;-0.91;100.00
62103;BME280;48077;48.104;11.702;2022-12-08T02:13:01;94943.47;;;-0.91;100.00
62103;BME280;48077;48.104;11.702;2022-12-08T02:15:35;94941.66;;;-0.91;100.00
62103;BME280;48077;48.104;11.702;2022-12-08T02:18:38;94933.31;;;-0.94;100.00
62103;BME280;48077;48.104;11.702;2022-12-08T02:21:11;94934.50;;;-0.97;100.00
62103;BME280;48077;48.104;11.702;2022-12-08T02:23:52;94926.16;;;-1.00;100.00
62103;BME280;48077;48.104;11.702;2022-12-08T02:35:12;94921.56;;;-0.98;100.00
62103;BME280;48077;48.104;11.702;2022-12-08T02:40:40;94920.75;;;-0.99;100.00
62103;BME280;48077;48.104;11.702;2022-12-08T02:43:13;94909.53;;;-1.08;100.00
62103;BME280;48077;48.104;11.702;2022-12-08T02:45:46;94906.81;;;-1.14;100.00
62103;BME280;48077;48.104;11.702;2022-12-08T02:48:10;94915.41;;;-1.06;100.00
62103;BME280;48077;48.104;11.702;2022-12-08T02:50:37;94911.00;;;-1.05;100.00
62103;BME280;48077;48.104;11.702;2022-12-08T02:53:00;94895.00;;;-1.10;100.00
62103;BME280;48077;48.104;11.702;2022-12-08T02:55:25;94900.34;;;-1.04;100.00
62103;BME280;48077;48.104;11.702;2022-12-08T02:58:18;94903.31;;;-1.07;100.00
62103;BME280;48077;48.104;11.702;2022-12-08T03:06:44;94881.63;;;-1.15;100.00
62103;BME280;48077;48.104;11.702;2022-12-08T03:12:05;94896.78;;;-1.11;100.00
62103;BME280;48077;48.104;11.702;2022-12-08T03:14:33;94882.09;;;-1.12;100.00
62103;BME280;48077;48.104;11.702;2022-12-08T03:16:57;94881.78;;;-1.17;100.00
62103;BME280;48077;48.104;11.702;2022-12-08T03:19:25;94889.13;;;-1.12;100.00
62103;BME280;48077;48.104;11.702;2022-12-08T03:21:52;94883.44;;;-1.16;100.00
62103;BME280;48077;48.104;11.702;2022-12-08T03:24:17;94883.06;;;-1.13;100.00
62103;BME280;48077;48.104;11.702;2022-12-08T03:26:49;94873.66;;;-1.22;100.00
62103;BME280;48077;48.104;11.702;2022-12-08T03:29:13;94868.59;;;-1.24;100.00
62103;BME280;48077;48.104;11.702;2022-12-08T03:31:43;94875.22;;;-1.13;100.00
62103;BME280;48077;48.104;11.702;2022-12-08T03:34:09;94874.94;;;-1.18;100.00
62103;BME280;48077;48.104;11.702;2022-12-08T03:36:34;94877.38;;;-1.16;100.00
62103;BME280;48077;48.104;11.702;2022-12-08T03:38:57;94881.63;;;-1.15;100.00
62103;BME280;48077;48.104;11.702;2022-12-08T03:41:21;94868.69;;;-1.17;100.00
62103;BME280;48077;48.104;11.702;2022-12-08T03:43:51;94874.88;;;-1.10;100.00
62103;BME280;48077;48.104;11.702;2022-12-08T03:46:15;94860.56;;;-1.22;100.00
62103;BME280;48077;48.104;11.702;2022-12-08T03:48:39;94866.56;;;-1.13;100.00
62103;BME280;48077;48.104;11.702;2022-12-08T03:51:03;94870.97;;;-1.14;100.00
62103;BME280;48077;48.104;11.702;2022-12-08T03:53:26;94864.75;;;-1.13;100.00
62103;BME280;48077;48.104;11.702;2022-12-08T03:55:49;94867.56;;;-1.14;100.00
62103;BME280;48077;48.104;11.702;2022-12-08T03:58:14;94868.69;;;-1.17;100.00
62103;BME280;48077;48.104;11.702;2022-12-08T04:00:38;94865.91;;;-1.15;100.00
62103;BME280;48077;48.104;11.702;2022-12-08T04:03:01;94861.50;;;-1.15;100.00
62103;BME280;48077;48.104;11.702;2022-12-08T04:05:26;94861.31;;;-1.13;100.00
62103;BME280;48077;48.104;11.702;2022-12-08T04:07:49;94864.09;;;-1.15;100.00
62103;BME280;48077;48.104;11.702;2022-12-08T04:10:13;94862.66;;;-1.17;100.00
62103;BME280;48077;48.104;11.702;2022-12-08T04:12:36;94859.88;;;-1.16;100.00
62103;BME280;48077;48.104;11.702;2022-12-08T04:15:00;94844.75;;;-1.29;100.00
62103;BME280;48077;48.104;11.702;2022-12-08T04:17:23;94855.97;;;-1.20;100.00
62103;BME280;48077;48.104;11.702;2022-12-08T04:19:46;94859.56;;;-1.21;100.00
62103;BME280;48077;48.104;11.702;2022-12-08T04:22:10;94861.53;;;-1.23;100.00
62103;BME280;48077;48.104;11.702;2022-12-08T04:24:33;94861.91;;;-1.26;100.00
62103;BME280;48077;48.104;11.702;2022-12-08T04:26:56;94859.28;;;-1.26;100.00
62103;BME280;48077;48.104;11.702;2022-12-08T04:29:20;94867.94;;;-1.26;100.00
62103;BME280;48077;48.104;11.702;2022-12-08T04:31:43;94862.88;;;-1.27;100.00
62103;BME280;48077;48.104;11.702;2022-12-08T04:34:08;94856.69;;;-1.26;100.00
62103;BME280;48077;48.104;11.702;2022-12-08T04:36:31;94841.22;;;-1.36;100.00
62103;BME280;48077;48.104;11.702;2022-12-08T04:38:55;94856.84;;;-1.28;100.00
62103;BME280;48077;48.104;11.702;2022-12-08T04:41:18;94836.81;;;-1.35;100.00
62103;BME280;48077;48.104;11.702;2022-12-08T04:43:44;94842.78;;;-1.27;100.00
62103;BME280;48077;48.104;11.702;2022-12-08T04:46:07;94851.91;;;-1.23;100.00
62103;BME280;48077;48.104;11.702;2022-12-08T04:48:31;94841.69;;;-1.32;100.00
62103;BME280;48077;48.104;11.702;2022-12-08T04:50:54;94835.97;;;-1.36;100.00
62103;BME280;48077;48.104;11.702;2022-12-08T04:53:17;94833.03;;;-1.33;100.00
62103;BME280;48077;48.104;11.702;2022-12-08T04:55:43;94844.75;;;-1.29;100.00
62103;BME280;48077;48.104;11.702;2022-12-08T04:58:07;94845.94;;;-1.31;100.00
62103;BME280;48077;48.104;11.702;2022-12-08T05:00:30;94845.47;;;-1.35;100.00
62103;BME280;48077;48.104;11.702;2022-12-08T05:02:53;94843.06;;;-1.45;100.00
62103;BME280;48077;48.104;11.702;2022-12-08T05:05:17;94855.28;;;-1.37;100.00
62103;BME280;48077;48.104;11.702;2022-12-08T05:07:40;94849.88;;;-1.35;100.00
62103;BME280;48077;48.104;11.702;2022-12-08T05:10:04;94850.34;;;-1.32;100.00
62103;BME280;48077;48.104;11.702;2022-12-08T05:12:27;94846.75;;;-1.31;100.00
62103;BME280;48077;48.104;11.702;2022-12-08T05:14:51;94837.09;;;-1.30;100.00
62103;BME280;48077;48.104;11.702;2022-12-08T05:17:15;94832.72;;;-1.38;100.00
62103;BME280;48077;48.104;11.702;2022-12-08T05:19:39;94841.78;;;-1.26;100.00
62103;BME280;48077;48.104;11.702;2022-12-08T05:22:02;94845.22;;;-1.25;100.00
62103;BME280;48077;48.104;11.702;2022-12-08T05:24:25;94833.94;;;-1.26;100.00
62103;BME280;48077;48.104;11.702;2022-12-08T05:26:49;94846.22;;;-1.26;100.00
62103;BME280;48077;48.104;11.702;2022-12-08T05:29:12;94828.44;;;-1.31;100.00
62103;BME280;48077;48.104;11.702;2022-12-08T05:31:36;94834.94;;;-1.27;100.00
62103;BME280;48077;48.104;11.702;2022-12-08T05:33:59;94835.75;;;-1.26;100.00
62103;BME280;48077;48.104;11.702;2022-12-08T05:36:22;94817.84;;;-1.37;100.00
62103;BME280;48077;48.104;11.702;2022-12-08T05:38:46;94818.31;;;-1.34;100.00
62103;BME280;48077;48.104;11.702;2022-12-08T05:41:13;94831.69;;;-1.29;100.00
62103;BME280;48077;48.104;11.702;2022-12-08T05:43:37;94825.34;;;-1.34;100.00
62103;BME280;48077;48.104;11.702;2022-12-08T05:46:00;94818.66;;;-1.37;100.00
62103;BME280;48077;48.104;11.702;2022-12-08T05:48:24;94817.84;;;-1.37;100.00
62103;BME280;48077;48.104;11.702;2022-12-08T05:50:48;94831.22;;;-1.32;100.00
62103;BME280;48077;48.104;11.702;2022-12-08T05:53:12;94801.22;;;-1.45;100.00
62103;BME280;48077;48.104;11.702;2022-12-08T05:55:36;94817.75;;;-1.29;100.00
62103;BME280;48077;48.104;11.702;2022-12-08T05:57:59;94819.41;;;-1.28;100.00
62103;BME280;48077;48.104;11.702;2022-12-08T06:00:22;94813.91;;;-1.33;100.00
62103;BME280;48077;48.104;11.702;2022-12-08T06:02:46;94813.06;;;-1.34;100.00
62103;BME280;48077;48.104;11.702;2022-12-08T06:05:09;94824.00;;;-1.30;100.00
62103;BME280;48077;48.104;11.702;2022-12-08T06:07:33;94815.50;;;-1.32;100.00
62103;BME280;48077;48.104;11.702;2022-12-08T06:09:56;94816.53;;;-1.33;100.00
62103;BME280;48077;48.104;11.702;2022-12-08T06:12:19;94814.72;;;-1.33;100.00
62103;BME280;48077;48.104;11.702;2022-12-08T06:14:43;94807.56;;;-1.39;100.00
62103;BME280;48077;48.104;11.702;2022-12-08T06:17:06;94813.97;;;-1.41;100.00
62103;BME280;48077;48.104;11.702;2022-12-08T06:19:30;94824.06;;;-1.38;100.00
62103;BME280;48077;48.104;11.702;2022-12-08T06:21:53;94827.84;;;-1.41;100.00
62103;BME280;48077;48.104;11.702;2022-12-08T06:24:16;94823.41;;;-1.40;100.00
62103;BME280;48077;48.104;11.702;2022-12-08T06:26:40;94810.72;;;-1.44;100.00
62103;BME280;48077;48.104;11.702;2022-12-08T06:29:03;94822.56;;;-1.33;100.00
62103;BME280;48077;48.104;11.702;2022-12-08T06:31:27;94824.38;;;-1.33;100.00
62103;BME280;48077;48.104;11.702;2022-12-08T06:33:51;94797.97;;;-1.47;100.00
62103;BME280;48077;48.104;11.702;2022-12-08T06:36:16;94823.53;;;-1.34;100.00
62103;BME280;48077;48.104;11.702;2022-12-08T06:38:40;94803.66;;;-1.43;100.00
62103;BME280;48077;48.104;11.702;2022-12-08T06:41:04;94805.47;;;-1.44;100.00
62103;BME280;48077;48.104;11.702;2022-12-08T06:43:28;94820.47;;;-1.37;100.00
62103;BME280;48077;48.104;11.702;2022-12-08T06:45:51;94805.16;;;-1.49;100.00
62103;BME280;48077;48.104;11.702;2022-12-08T06:48:15;94812.50;;;-1.44;100.00
62103;BME280;48077;48.104;11.702;2022-12-08T06:50:38;94815.56;;;-1.40;100.00
62103;BME280;48077;48.104;11.702;2022-12-08T06:53:02;94815.41;;;-1.39;100.00
62103;BME280;48077;48.104;11.702;2022-12-08T06:55:25;94802.66;;;-1.42;100.00
62103;BME280;48077;48.104;11.702;2022-12-08T06:57:49;94799.78;;;-1.47;100.00
62103;BME280;48077;48.104;11.702;2022-12-08T07:00:12;94811.97;;;-1.39;100.00
62103;BME280;48077;48.104;11.702;2022-12-08T07:02:36;94783.13;;;-1.54;100.00
62103;BME280;48077;48.104;11.702;2022-12-08T07:04:59;94806.97;;;-1.49;100.00
62103;BME280;48077;48.104;11.702;2022-12-08T07:07:23;94825.75;;;-1.46;100.00
62103;BME280;48077;48.104;11.702;2022-12-08T07:09:46;94827.09;;;-1.50;100.00
62103;BME280;48077;48.104;11.702;2022-12-08T07:12:09;94806.94;;;-1.64;100.00
62103;BME280;48077;48.104;11.702;2022-12-08T07:14:33;94823.22;;;-1.54;100.00
62103;BME280;48077;48.104;11.702;2022-12-08T07:16:56;94828.72;;;-1.49;100.00
62103;BME280;48077;48.104;11.702;2022-12-08T07:19:20;94828.19;;;-1.44;100.00
62103;BME280;48077;48.104;11.702;2022-12-08T07:21:43;94824.75;;;-1.45;100.00
62103;BME280;48077;48.104;11.702;2022-12-08T07:24:07;94818.34;;;-1.42;100.00
62103;BME280;48077;48.104;11.702;2022-12-08T07:26:31;94817.84;;;-1.37;100.00
62103;BME280;48077;48.104;11.702;2022-12-08T07:28:54;94825.63;;;-1.29;100.00
62103;BME280;48077;48.104;11.702;2022-12-08T07:31:23;94817.97;;;-1.31;100.00
62103;BME280;48077;48.104;11.702;2022-12-08T07:33:47;94816.53;;;-1.33;100.00
62103;BME280;48077;48.104;11.702;2022-12-08T07:36:10;94825.28;;;-1.26;100.00
62103;BME280;48077;48.104;11.702;2022-12-08T07:38:34;94823.00;;;-1.29;100.00
62103;BME280;48077;48.104;11.702;2022-12-08T07:40:57;94835.69;;;-1.18;100.00
62103;BME280;48077;48.104;11.702;2022-12-08T07:43:21;94835.16;;;-1.13;100.00
62103;BME280;48077;48.104;11.702;2022-12-08T07:45:45;94840.47;;;-1.07;100.00
62103;BME280;48077;48.104;11.702;2022-12-08T07:48:09;94837.16;;;-1.00;100.00
62103;BME280;48077;48.104;11.702;2022-12-08T07:50:58;94828.59;;;-0.94;100.00
62103;BME280;48077;48.104;11.702;2022-12-08T07:53:21;94829.59;;;-0.95;100.00
62103;BME280;48077;48.104;11.702;2022-12-08T07:55:44;94830.16;;;-0.85;100.00
62103;BME280;48077;48.104;11.702;2022-12-08T07:58:08;94829.47;;;-0.79;100.00
62103;BME280;48077;48.104;11.702;2022-12-08T08:00:32;94832.72;;;-0.77;100.00
62103;BME280;48077;48.104;11.702;2022-12-08T08:02:55;94832.16;;;-0.72;100.00
62103;BME280;48077;48.104;11.702;2022-12-08T08:05:18;94814.19;;;-0.75;100.00
62103;BME280;48077;48.104;11.702;2022-12-08T08:07:42;94827.13;;;-0.59;100.00
62103;BME280;48077;48.104;11.702;2022-12-08T08:10:07;94822.78;;;-0.52;100.00
62103;BME280;48077;48.104;11.702;2022-12-08T08:12:32;94825.13;;;-0.42;100.00
62103;BME280;48077;48.104;11.702;2022-12-08T08:14:55;94829.66;;;-0.36;100.00
62103;BME280;48077;48.104;11.702;2022-12-08T08:17:19;94818.63;;;-0.31;100.00
62103;BME280;48077;48.104;11.702;2022-12-08T08:19:45;94836.59;;;-0.28;100.00
62103;BME280;48077;48.104;11.702;2022-12-08T08:22:08;94817.63;;;-0.30;100.00
62103;BME280;48077;48.104;11.702;2022-12-08T08:24:32;94818.09;;;-0.27;100.00
62103;BME280;48077;48.104;11.702;2022-12-08T08:26:55;94826.66;;;-0.18;100.00
62103;BME280;48077;48.104;11.702;2022-12-08T08:29:18;94826.09;;;-0.13;100.00
62103;BME280;48077;48.104;11.702;2022-12-08T08:31:42;94824.75;;;-0.09;100.00
62103;BME280;48077;48.104;11.702;2022-12-08T08:34:05;94812.19;;;-0.14;100.00
62103;BME280;48077;48.104;11.702;2022-12-08T08:36:28;94812.28;;;-0.07;100.00
62103;BME280;48077;48.104;11.702;2022-12-08T08:38:52;94822.91;;;0.06;100.00
62103;BME280;48077;48.104;11.702;2022-12-08T08:41:15;94827.41;;;0.12;100.00
62103;BME280;48077;48.104;11.702;2022-12-08T08:43:39;94820.63;;;0.18;100.00
62103;BME280;48077;48.104;11.702;2022-12-08T08:46:03;94816.47;;;0.24;100.00
62103;BME280;48077;48.104;11.702;2022-12-08T08:48:29;94821.38;;;0.33;100.00
62103;BME280;48077;48.104;11.702;2022-12-08T08:50:53;94822.91;;;0.43;100.00
62103;BME280;48077;48.104;11.702;2022-12-08T08:53:16;94823.25;;;0.54;100.00
62103;BME280;48077;48.104;11.702;2022-12-08T08:55:40;94816.25;;;0.62;100.00
62103;BME280;48077;48.104;11.702;2022-12-08T08:58:03;94809.84;;;0.71;100.00
62103;BME280;48077;48.104;11.702;2022-12-08T09:00:27;94826.38;;;0.86;100.00
62103;BME280;48077;48.104;11.702;2022-12-08T09:02:50;94811.19;;;0.82;100.00
62103;BME280;48077;48.104;11.702;2022-12-08T09:05:13;94817.72;;;0.92;100.00
62103;BME280;48077;48.104;11.702;2022-12-08T09:07:37;94824.50;;;1.08;100.00
62103;BME280;48077;48.104;11.702;2022-12-08T09:10:00;94825.84;;;1.19;100.00
62103;BME280;48077;48.104;11.702;2022-12-08T09:12:23;94814.34;;;1.27;100.00
62103;BME280;48077;48.104;11.702;2022-12-08T09:14:47;94819.84;;;1.32;100.00
62103;BME280;48077;48.104;11.702;2022-12-08T09:17:10;94813.59;;;1.33;100.00
62103;BME280;48077;48.104;11.702;2022-12-08T09:19:34;94811.41;;;1.36;100.00
62103;BME280;48077;48.104;11.702;2022-12-08T09:21:57;94806.44;;;1.48;100.00
62103;BME280;48077;48.104;11.702;2022-12-08T09:24:20;94812.19;;;1.65;100.00
62103;BME280;48077;48.104;11.702;2022-12-08T09:26:45;94804.34;;;1.78;100.00
62103;BME280;48077;48.104;11.702;2022-12-08T09:29:10;94807.25;;;1.90;98.04
62103;BME280;48077;48.104;11.702;2022-12-08T09:31:34;94794.13;;;1.97;96.22
62103;BME280;48077;48.104;11.702;2022-12-08T09:33:57;94802.66;;;2.12;95.87
62103;BME280;48077;48.104;11.702;2022-12-08T09:36:21;94797.84;;;2.16;94.63
62103;BME280;48077;48.104;11.702;2022-12-08T09:38:45;94783.91;;;2.29;93.44
62103;BME280;48077;48.104;11.702;2022-12-08T09:41:34;94797.31;;;2.47;91.23
62103;BME280;48077;48.104;11.702;2022-12-08T09:46:59;94782.38;;;2.74;90.27
62103;BME280;48077;48.104;11.702;2022-12-08T09:49:34;94780.53;;;2.75;88.79
62103;BME280;48077;48.104;11.702;2022-12-08T09:51:59;94779.97;;;2.86;88.49
62103;BME280;48077;48.104;11.702;2022-12-08T09:54:30;94769.59;;;2.91;86.61
62103;BME280;48077;48.104;11.702;2022-12-08T09:56:58;94760.69;;;2.99;84.52
62103;BME280;48077;48.104;11.702;2022-12-08T09:59:30;94764.34;;;3.18;83.76
62103;BME280;48077;48.104;11.702;2022-12-08T10:01:54;94765.53;;;3.29;83.58
62103;BME280;48077;48.104;11.702;2022-12-08T10:15:22;94746.78;;;3.70;77.43
62103;BME280;48077;48.104;11.702;2022-12-08T10:17:50;94750.41;;;3.82;75.59
62103;BME280;48077;48.104;11.702;2022-12-08T10:20:22;94746.53;;;3.92;74.03
62103;BME280;48077;48.104;11.702;2022-12-08T10:22:52;94735.25;;;4.10;73.15
62103;BME280;48077;48.104;11.702;2022-12-08T10:25:30;94732.13;;;4.26;71.59
62103;BME280;48077;48.104;11.702;2022-12-08T10:27:57;94724.72;;;4.41;70.79
62103;BME280;48077;48.104;11.702;2022-12-08T10:30:21;94728.63;;;4.64;70.23
62103;BME280;48077;48.104;11.702;2022-12-08T10:32:47;94725.47;;;4.80;69.32
62103;BME280;48077;48.104;11.702;2022-12-08T10:35:13;94719.28;;;4.93;69.01
62103;BME280;48077;48.104;11.702;2022-12-08T10:37:37;94696.47;;;4.99;68.68
62103;BME280;48077;48.104;11.702;2022-12-08T10:40:15;94714.56;;;5.20;67.86
62103;BME280;48077;48.104;11.702;2022-12-08T10:42:40;94708.91;;;5.35;67.75
62103;BME280;48077;48.104;11.702;2022-12-08T10:47:38;94699.91;;;4.99;67.76
62103;BME280;48077;48.104;11.702;2022-12-08T10:50:19;94705.38;;;4.54;68.97
62103;BME280;48077;48.104;11.702;2022-12-08T10:52:42;94696.81;;;4.20;70.21
62103;BME280;48077;48.104;11.702;2022-12-08T10:55:17;94697.81;;;4.26;71.04
62103;BME280;48077;48.104;11.702;2022-12-08T10:57:41;94698.22;;;4.30;71.84
62103;BME280;48077;48.104;11.702;2022-12-08T11:00:05;94691.84;;;4.69;69.55
62103;BME280;48077;48.104;11.702;2022-12-08T11:02:28;94678.16;;;4.97;68.92
62103;BME280;48077;48.104;11.702;2022-12-08T11:04:56;94688.75;;;4.97;69.34
62103;BME280;48077;48.104;11.702;2022-12-08T11:07:23;94672.41;;;5.25;68.05
62103;BME280;48077;48.104;11.702;2022-12-08T11:09:48;94675.47;;;4.79;67.21
62103;BME280;48077;48.104;11.702;2022-12-08T11:12:18;94677.78;;;4.43;70.10
62103;BME280;48077;48.104;11.702;2022-12-08T11:17:06;94681.06;;;4.07;73.31
62103;BME280;48077;48.104;11.702;2022-12-08T11:19:30;94681.38;;;3.92;72.81
62103;BME280;48077;48.104;11.702;2022-12-08T11:21:55;94674.34;;;3.79;73.51
62103;BME280;48077;48.104;11.702;2022-12-08T11:24:24;94670.13;;;3.65;73.83
62103;BME280;48077;48.104;11.702;2022-12-08T11:26:52;94671.41;;;3.49;74.06
62103;BME280;48077;48.104;11.702;2022-12-08T11:29:15;94665.59;;;3.34;75.32
62103;BME280;48077;48.104;11.702;2022-12-08T11:31:43;94660.13;;;3.22;76.23
62103;BME280;48077;48.104;11.702;2022-12-08T11:34:18;94661.38;;;3.19;75.53
62103;BME280;48077;48.104;11.702;2022-12-08T11:36:42;94662.38;;;3.12;75.25
62103;BME280;48077;48.104;11.702;2022-12-08T11:39:09;94656.09;;;3.06;76.42
62103;BME280;48077;48.104;11.702;2022-12-08T11:41:36;94640.34;;;2.93;77.76
62103;BME280;48077;48.104;11.702;2022-12-08T11:44:04;94652.28;;;2.95;75.88
62103;BME280;48077;48.104;11.702;2022-12-08T11:49:03;94650.09;;;2.72;76.88
62103;BME280;48077;48.104;11.702;2022-12-08T11:51:31;94649.69;;;2.69;79.67
62103;BME280;48077;48.104;11.702;2022-12-08T11:54:10;94640.59;;;2.58;80.76
62103;BME280;48077;48.104;11.702;2022-12-08T11:56:38;94650.72;;;2.54;81.81
62103;BME280;48077;48.104;11.702;2022-12-08T11:59:18;94646.06;;;2.50;82.05
62103;BME280;48077;48.104;11.702;2022-12-08T12:01:43;94628.06;;;2.40;82.96
62103;BME280;48077;48.104;11.702;2022-12-08T12:09:22;94640.38;;;2.39;81.01
62103;BME280;48077;48.104;11.702;2022-12-08T12:17:36;94629.28;;;2.44;80.24
62103;BME280;48077;48.104;11.702;2022-12-08T12:20:11;94627.66;;;2.36;80.74
62103;BME280;48077;48.104;11.702;2022-12-08T12:22:36;94624.81;;;2.38;80.60
62103;BME280;48077;48.104;11.702;2022-12-08T12:25:00;94617.50;;;2.33;81.25
62103;BME280;48077;48.104;11.702;2022-12-08T12:27:34;94620.16;;;2.40;82.65
62103;BME280;48077;48.104;11.702;2022-12-08T12:30:02;94632.72;;;2.45;84.71
62103;BME280;48077;48.104;11.702;2022-12-08T12:33:00;94631.50;;;2.40;86.30
62103;BME280;48077;48.104;11.702;2022-12-08T12:35:42;94619.34;;;2.33;87.07
62103;BME280;48077;48.104;11.702;2022-12-08T12:38:20;94626.84;;;2.36;86.94
62103;BME280;48077;48.104;11.702;2022-12-08T12:41:06;94613.88;;;2.28;87.24
62103;BME280;48077;48.104;11.702;2022-12-08T12:43:33;94619.75;;;2.30;87.83
62103;BME280;48077;48.104;11.702;2022-12-08T12:46:36;94616.50;;;2.28;87.52
62103;BME280;48077;48.104;11.702;2022-12-08T13:02:26;94607.78;;;2.20;87.81
62103;BME280;48077;48.104;11.702;2022-12-08T13:04:56;94612.25;;;2.20;87.67
62103;BME280;48077;48.104;11.702;2022-12-08T13:07:25;94605.38;;;2.19;86.81
62103;BME280;48077;48.104;11.702;2022-12-08T13:09:56;94613.66;;;2.22;85.27
62103;BME280;48077;48.104;11.702;2022-12-08T13:12:22;94607.59;;;2.15;85.10
62103;BME280;48077;48.104;11.702;2022-12-08T13:14:49;94603.56;;;2.19;86.83
62103;BME280;48077;48.104;11.702;2022-12-08T13:17:18;94598.47;;;2.25;86.76
62103;BME280;48077;48.104;11.702;2022-12-08T13:19:47;94595.28;;;2.29;87.46
62103;BME280;48077;48.104;11.702;2022-12-08T13:22:45;94593.81;;;2.33;85.47
62103;BME280;48077;48.104;11.702;2022-12-08T13:28:20;94586.53;;;2.35;85.37
62103;BME280;48077;48.104;11.702;2022-12-08T13:33:17;94592.41;;;2.44;86.47
62103;BME280;48077;48.104;11.702;2022-12-08T13:35:46;94584.31;;;2.39;87.41
62103;BME280;48077;48.104;11.702;2022-12-08T13:38:18;94590.59;;;2.45;86.48
62103;BME280;48077;48.104;11.702;2022-12-08T13:40:43;94577.03;;;2.34;87.28
62103;BME280;48077;48.104;11.702;2022-12-08T13:43:25;94584.72;;;2.36;86.68
62103;BME280;48077;48.104;11.702;2022-12-08T13:45:53;94575.81;;;2.30;88.36
62103;BME280;48077;48.104;11.702;2022-12-08T13:48:24;94589.38;;;2.34;88.36
62103;BME280;48077;48.104;11.702;2022-12-08T13:51:09;94590.00;;;2.36;87.86
62103;BME280;48077;48.104;11.702;2022-12-08T13:53:38;94587.97;;;2.38;87.87
62103;BME280;48077;48.104;11.702;2022-12-08T13:56:03;94593.25;;;2.38;88.29
62103;BME280;48077;48.104;11.702;2022-12-08T13:58:33;94587.13;;;2.37;87.79